Time;durP1;ratioP1;P1;durP2;ratioP2;P2;SDS_P1;SDS_P2;PMS_P1;PMS_P2;Temp;Humidity;BMP_temperature;BMP_pressure;BME280_temperature;BME280_humidity;BME280_pressure;Samples;Min_cycle;Max_cycle;Signal;HPM_P1;HPM_P2
2023/09/21 00:00:44;;;;;;;4.93;1.63;;;;;;;;;;5014901;28;20029;-39
2023/09/21 00:03:11;;;;;;;5.68;2.20;;;;;;;;;;5014898;28;20029;-39
2023/09/21 00:05:39;;;;;;;6.00;1.95;;;;;;;;;;5008538;28;20067;-39
2023/09/21 00:08:06;;;;;;;5.10;1.83;;;;;;;;;;5005456;28;20053;-38
2023/09/21 00:10:32;;;;;;;5.47;1.90;;;;;;;;;;5017482;28;20042;-39
2023/09/21 00:12:58;;;;;;;6.60;2.53;;;;;;;;;;5017220;28;20550;-38
2023/09/21 00:15:34;;;;;;;5.53;2.20;;;;;;;;;;5019258;28;20039;-39
2023/09/21 00:17:59;;;;;;;4.57;2.22;;;;;;;;;;5013332;28;20033;-39
2023/09/21 00:20:35;;;;;;;2.90;1.40;;;;;;;;;;5011716;28;20044;-39
2023/09/21 00:23:01;;;;;;;5.28;1.90;;;;;;;;;;5015988;28;20280;-39
2023/09/21 00:25:28;;;;;;;4.43;2.22;;;;;;;;;;5012041;28;20067;-39
2023/09/21 00:27:53;;;;;;;5.00;1.52;;;;;;;;;;5011871;28;20026;-39
2023/09/21 00:30:18;;;;;;;4.88;2.13;;;;;;;;;;5016833;28;20067;-38
2023/09/21 00:32:44;;;;;;;4.90;2.05;;;;;;;;;;5019776;28;20100;-38
2023/09/21 00:35:10;;;;;;;4.38;1.40;;;;;;;;;;5016936;28;20091;-39
2023/09/21 00:37:36;;;;;;;5.95;2.58;;;;;;;;;;5014633;28;20022;-38
2023/09/21 00:40:05;;;;;;;7.30;2.33;;;;;;;;;;5015485;28;20041;-38
2023/09/21 00:42:30;;;;;;;9.40;2.72;;;;;;;;;;5015102;28;20034;-39
2023/09/21 00:44:55;;;;;;;4.17;2.03;;;;;;;;;;5013419;28;20033;-39
2023/09/21 00:47:21;;;;;;;5.75;2.13;;;;;;;;;;5016433;28;20033;-39
2023/09/21 00:49:46;;;;;;;3.63;1.95;;;;;;;;;;5012731;28;20519;-38
2023/09/21 00:52:12;;;;;;;6.80;2.10;;;;;;;;;;5013616;28;20032;-38
2023/09/21 00:54:39;;;;;;;8.27;2.50;;;;;;;;;;5010268;28;20827;-39
2023/09/21 00:57:06;;;;;;;7.20;2.15;;;;;;;;;;5018084;28;20048;-39
2023/09/21 00:59:36;;;;;;;5.25;1.85;;;;;;;;;;5010657;28;20025;-41
2023/09/21 01:02:04;;;;;;;5.00;2.20;;;;;;;;;;5013899;28;20025;-38
2023/09/21 01:04:29;;;;;;;6.65;2.28;;;;;;;;;;5015722;28;20119;-40
2023/09/21 01:06:54;;;;;;;6.47;2.60;;;;;;;;;;5012583;28;20026;-39
2023/09/21 01:09:20;;;;;;;4.80;2.40;;;;;;;;;;5014574;28;20060;-38
2023/09/21 01:11:45;;;;;;;5.43;1.90;;;;;;;;;;5017041;28;20535;-38
2023/09/21 01:14:11;;;;;;;5.43;2.58;;;;;;;;;;5016357;28;20630;-39
2023/09/21 01:16:36;;;;;;;5.37;3.00;;;;;;;;;;5010499;28;20083;-40
2023/09/21 01:19:01;;;;;;;4.70;2.45;;;;;;;;;;5016776;28;20029;-38
2023/09/21 01:21:40;;;;;;;7.53;2.57;;;;;;;;;;5012956;28;20021;-39
2023/09/21 01:24:06;;;;;;;6.45;2.78;;;;;;;;;;5014069;28;20108;-39
2023/09/21 01:26:32;;;;;;;8.05;3.05;;;;;;;;;;5014292;28;20132;-39
2023/09/21 01:28:58;;;;;;;5.20;2.75;;;;;;;;;;5018554;28;20112;-39
2023/09/21 01:31:23;;;;;;;4.90;2.20;;;;;;;;;;5010833;28;20488;-38
2023/09/21 01:33:49;;;;;;;4.13;1.88;;;;;;;;;;5014876;28;20128;-39
2023/09/21 01:36:15;;;;;;;4.90;2.57;;;;;;;;;;5014468;28;20052;-38
2023/09/21 01:38:44;;;;;;;5.38;2.60;;;;;;;;;;5010528;28;20370;-40
2023/09/21 01:41:09;;;;;;;7.57;2.92;;;;;;;;;;5012839;28;20037;-40
2023/09/21 01:43:35;;;;;;;4.95;2.20;;;;;;;;;;5010606;28;20144;-38
2023/09/21 01:46:00;;;;;;;4.57;2.20;;;;;;;;;;5014166;28;20038;-38
2023/09/21 01:48:27;;;;;;;5.67;2.73;;;;;;;;;;5021566;28;20415;-39
2023/09/21 01:50:57;;;;;;;5.05;2.13;;;;;;;;;;5020205;28;20419;-38
2023/09/21 01:53:22;;;;;;;5.25;2.30;;;;;;;;;;5023636;28;20044;-38
2023/09/21 01:55:49;;;;;;;6.20;2.38;;;;;;;;;;5018663;28;20030;-40
2023/09/21 01:58:15;;;;;;;6.50;2.85;;;;;;;;;;5014016;28;20072;-39
2023/09/21 02:00:46;;;;;;;4.20;2.45;;;;;;;;;;5013212;28;20034;-38
2023/09/21 02:03:12;;;;;;;5.60;2.63;;;;;;;;;;5018902;28;20022;-38
2023/09/21 02:05:41;;;;;;;5.05;2.42;;;;;;;;;;5019187;28;20038;-40
2023/09/21 02:08:07;;;;;;;5.43;2.50;;;;;;;;;;5017106;28;20018;-39
2023/09/21 02:10:33;;;;;;;6.78;3.17;;;;;;;;;;5023736;28;21029;-39
2023/09/21 02:12:59;;;;;;;3.67;1.80;;;;;;;;;;5008844;28;20520;-38
2023/09/21 02:15:26;;;;;;;3.97;2.20;;;;;;;;;;5010577;28;20037;-38
2023/09/21 02:17:54;;;;;;;4.32;2.45;;;;;;;;;;5017065;28;20478;-38
2023/09/21 02:20:20;;;;;;;5.53;2.67;;;;;;;;;;5019839;28;20042;-38
2023/09/21 02:22:49;;;;;;;5.40;2.35;;;;;;;;;;5017374;28;20034;-40
2023/09/21 02:25:15;;;;;;;4.13;2.45;;;;;;;;;;5017293;28;20026;-38
2023/09/21 02:27:41;;;;;;;7.82;2.97;;;;;;;;;;5014789;28;20029;-38
2023/09/21 02:30:10;;;;;;;6.63;2.53;;;;;;;;;;5011922;28;20455;-38
2023/09/21 02:32:35;;;;;;;6.97;2.65;;;;;;;;;;5014149;28;20026;-39
2023/09/21 02:35:02;;;;;;;4.57;2.50;;;;;;;;;;5012447;28;20052;-39
2023/09/21 02:37:28;;;;;;;4.22;2.47;;;;;;;;;;5018306;28;20523;-39
2023/09/21 02:39:53;;;;;;;4.93;3.55;;;;;;;;;;5020029;28;20108;-38
2023/09/21 02:42:19;;;;;;;4.35;2.40;;;;;;;;;;5020823;28;20270;-38
2023/09/21 02:44:45;;;;;;;4.15;2.08;;;;;;;;;;5006060;28;20066;-38
2023/09/21 02:47:11;;;;;;;5.15;2.75;;;;;;;;;;5011445;28;20040;-40
2023/09/21 02:49:36;;;;;;;8.47;2.40;;;;;;;;;;5019760;28;20018;-38
2023/09/21 02:52:04;;;;;;;4.53;2.37;;;;;;;;;;5017862;28;20284;-40
2023/09/21 02:54:29;;;;;;;3.45;1.83;;;;;;;;;;5005856;28;20029;-38
2023/09/21 02:56:54;;;;;;;5.27;2.27;;;;;;;;;;5014116;28;20030;-39
2023/09/21 02:59:19;;;;;;;5.50;2.63;;;;;;;;;;5015206;28;20275;-38
2023/09/21 03:01:45;;;;;;;6.90;2.80;;;;;;;;;;5014467;28;20037;-40
2023/09/21 03:04:11;;;;;;;7.57;2.83;;;;;;;;;;5014465;28;20741;-38
2023/09/21 03:06:37;;;;;;;6.88;2.63;;;;;;;;;;5013817;28;20119;-38
2023/09/21 03:09:03;;;;;;;7.47;2.25;;;;;;;;;;5019406;28;20029;-38
2023/09/21 03:11:29;;;;;;;5.28;2.70;;;;;;;;;;5014319;28;20026;-39
2023/09/21 03:13:55;;;;;;;9.90;3.03;;;;;;;;;;5016529;28;20488;-38
2023/09/21 03:16:21;;;;;;;6.68;2.72;;;;;;;;;;5016524;28;20040;-38
2023/09/21 03:18:47;;;;;;;9.10;3.47;;;;;;;;;;5014517;28;20030;-38
2023/09/21 03:21:15;;;;;;;5.32;2.10;;;;;;;;;;5010909;28;20026;-38
2023/09/21 03:23:45;;;;;;;6.05;3.00;;;;;;;;;;5016128;28;20029;-38
2023/09/21 03:26:11;;;;;;;7.18;3.03;;;;;;;;;;5020028;28;20032;-38
2023/09/21 03:28:37;;;;;;;6.90;3.00;;;;;;;;;;5014021;28;20018;-38
2023/09/21 03:31:03;;;;;;;8.32;3.75;;;;;;;;;;5014609;28;20032;-38
2023/09/21 03:33:28;;;;;;;8.40;3.00;;;;;;;;;;5018341;28;20021;-38
2023/09/21 03:35:54;;;;;;;7.10;3.30;;;;;;;;;;5016813;28;20022;-39
2023/09/21 03:38:19;;;;;;;13.23;5.35;;;;;;;;;;5017175;28;20026;-39
2023/09/21 03:40:45;;;;;;;6.93;2.80;;;;;;;;;;5017211;28;20014;-38
2023/09/21 03:43:13;;;;;;;5.07;3.53;;;;;;;;;;5022971;28;20044;-38
2023/09/21 03:45:39;;;;;;;7.38;3.33;;;;;;;;;;5022270;28;20087;-38
2023/09/21 03:48:06;;;;;;;6.68;3.17;;;;;;;;;;5021391;28;20559;-38
2023/09/21 03:50:31;;;;;;;7.40;3.42;;;;;;;;;;5021929;28;20407;-38
2023/09/21 03:52:59;;;;;;;9.90;3.00;;;;;;;;;;5022138;28;20029;-40
2023/09/21 03:55:24;;;;;;;9.35;3.00;;;;;;;;;;5019831;28;20051;-39
2023/09/21 03:57:50;;;;;;;4.95;2.72;;;;;;;;;;5019435;28;21030;-38
2023/09/21 04:03:09;;;;;;;6.47;3.15;;;;;;;;;;5019497;28;20048;-38
2023/09/21 04:05:39;;;;;;;7.82;2.70;;;;;;;;;;5020330;28;20553;-38
2023/09/21 04:08:05;;;;;;;8.02;3.15;;;;;;;;;;5017586;28;20052;-39
2023/09/21 04:10:31;;;;;;;4.97;2.75;;;;;;;;;;5021177;28;20057;-38
2023/09/21 04:12:56;;;;;;;7.40;3.17;;;;;;;;;;5018494;28;20045;-38
2023/09/21 04:15:25;;;;;;;6.80;3.40;;;;;;;;;;5018911;28;20087;-38
2023/09/21 04:17:50;;;;;;;6.80;2.92;;;;;;;;;;5025263;28;20048;-38
2023/09/21 04:20:18;;;;;;;5.93;2.63;;;;;;;;;;5015422;28;20060;-38
2023/09/21 04:22:44;;;;;;;8.10;3.08;;;;;;;;;;5020119;28;20029;-39
2023/09/21 04:25:10;;;;;;;6.00;2.63;;;;;;;;;;5022194;28;20033;-38
2023/09/21 04:27:39;;;;;;;4.90;3.00;;;;;;;;;;5020372;28;20656;-38
2023/09/21 04:30:09;;;;;;;6.30;3.00;;;;;;;;;;5018662;28;20040;-38
2023/09/21 04:32:38;;;;;;;13.70;3.75;;;;;;;;;;5018498;28;20463;-39
2023/09/21 04:35:04;;;;;;;5.88;2.88;;;;;;;;;;5015879;28;20032;-38
2023/09/21 04:37:29;;;;;;;9.13;3.28;;;;;;;;;;5017414;28;20021;-38
2023/09/21 04:39:55;;;;;;;6.17;2.70;;;;;;;;;;5013264;28;20044;-38
2023/09/21 04:42:20;;;;;;;7.27;3.30;;;;;;;;;;5013376;28;20815;-39
2023/09/21 04:44:45;;;;;;;8.77;3.40;;;;;;;;;;5015310;28;20040;-39
2023/09/21 04:47:11;;;;;;;9.05;3.22;;;;;;;;;;5019364;28;20049;-39
2023/09/21 04:49:37;;;;;;;5.40;3.13;;;;;;;;;;5018868;28;20397;-39
2023/09/21 04:52:03;;;;;;;5.97;3.00;;;;;;;;;;5015534;28;20082;-39
2023/09/21 04:54:29;;;;;;;6.95;3.15;;;;;;;;;;5016184;28;20021;-39
2023/09/21 04:56:54;;;;;;;3.80;1.57;;;;;;;;;;5018220;28;20507;-39
2023/09/21 04:59:20;;;;;;;8.57;3.13;;;;;;;;;;5020321;28;20363;-39
2023/09/21 05:01:47;;;;;;;5.38;2.80;;;;;;;;;;5008192;28;20362;-39
2023/09/21 05:04:13;;;;;;;9.90;2.90;;;;;;;;;;5017291;28;20036;-39
2023/09/21 05:06:38;;;;;;;14.30;3.58;;;;;;;;;;5015532;28;20551;-39
2023/09/21 05:09:03;;;;;;;7.93;3.92;;;;;;;;;;5015252;28;20033;-39
2023/09/21 05:11:33;;;;;;;9.30;3.95;;;;;;;;;;5015467;28;20508;-39
2023/09/21 05:13:58;;;;;;;10.65;4.35;;;;;;;;;;5019054;28;20063;-39
2023/09/21 05:16:24;;;;;;;12.50;4.77;;;;;;;;;;5015953;28;20018;-39
2023/09/21 05:18:50;;;;;;;13.07;5.30;;;;;;;;;;5015479;28;20388;-39
2023/09/21 05:21:15;;;;;;;9.45;4.28;;;;;;;;;;5016170;28;20472;-39
2023/09/21 05:23:45;;;;;;;6.67;3.23;;;;;;;;;;5017302;28;20025;-39
2023/09/21 05:26:10;;;;;;;8.98;4.28;;;;;;;;;;5016641;28;22676;-39
2023/09/21 05:28:36;;;;;;;9.45;3.67;;;;;;;;;;5012942;28;20488;-39
2023/09/21 05:31:01;;;;;;;8.07;3.63;;;;;;;;;;5015910;28;20076;-39
2023/09/21 05:33:26;;;;;;;12.57;3.87;;;;;;;;;;5022710;28;20659;-39
2023/09/21 05:35:55;;;;;;;7.05;2.95;;;;;;;;;;5013813;28;20346;-39
2023/09/21 05:38:20;;;;;;;6.38;3.65;;;;;;;;;;5015305;28;20071;-39
2023/09/21 05:40:45;;;;;;;7.18;3.50;;;;;;;;;;5015159;28;20030;-39
2023/09/21 05:43:12;;;;;;;7.93;3.40;;;;;;;;;;5020425;28;20695;-39
2023/09/21 05:45:37;;;;;;;11.10;3.30;;;;;;;;;;5017757;28;20025;-39
2023/09/21 05:48:02;;;;;;;7.13;3.90;;;;;;;;;;5019450;28;20395;-39
2023/09/21 05:50:28;;;;;;;10.57;3.78;;;;;;;;;;5015564;28;20288;-39
2023/09/21 05:52:56;;;;;;;7.93;3.53;;;;;;;;;;5018357;28;20035;-39
2023/09/21 05:55:21;;;;;;;5.88;3.08;;;;;;;;;;5021449;28;20307;-39
2023/09/21 05:57:47;;;;;;;4.80;3.50;;;;;;;;;;5023707;28;20388;-39
2023/09/21 06:00:14;;;;;;;9.80;3.38;;;;;;;;;;5022277;28;20268;-39
2023/09/21 06:02:39;;;;;;;5.68;3.13;;;;;;;;;;5016932;28;20028;-39
2023/09/21 06:05:06;;;;;;;10.90;3.10;;;;;;;;;;5023286;28;20084;-39
2023/09/21 06:07:34;;;;;;;8.82;3.72;;;;;;;;;;5022901;28;20734;-39
2023/09/21 06:10:00;;;;;;;9.48;3.50;;;;;;;;;;5024701;28;20045;-39
2023/09/21 06:12:26;;;;;;;6.13;2.87;;;;;;;;;;5021939;28;20136;-39
2023/09/21 06:14:52;;;;;;;7.60;3.75;;;;;;;;;;5015814;28;20298;-39
2023/09/21 06:17:17;;;;;;;16.60;6.75;;;;;;;;;;5016460;28;20112;-39
2023/09/21 06:19:44;;;;;;;12.98;6.10;;;;;;;;;;5016501;28;20143;-39
2023/09/21 06:22:09;;;;;;;13.02;5.55;;;;;;;;;;5018984;28;20088;-39
2023/09/21 06:24:34;;;;;;;8.02;3.70;;;;;;;;;;5014137;28;20618;-39
2023/09/21 06:27:00;;;;;;;8.10;3.85;;;;;;;;;;5021682;28;20021;-39
2023/09/21 06:29:25;;;;;;;7.07;3.63;;;;;;;;;;5018000;28;20033;-39
2023/09/21 06:31:54;;;;;;;7.15;3.40;;;;;;;;;;5016099;28;20040;-39
2023/09/21 06:34:22;;;;;;;9.18;3.55;;;;;;;;;;5011563;28;20029;-39
2023/09/21 06:36:47;;;;;;;6.82;3.63;;;;;;;;;;5019333;28;20026;-40
2023/09/21 06:39:14;;;;;;;6.23;3.70;;;;;;;;;;5017759;28;20044;-39
2023/09/21 06:41:40;;;;;;;9.93;3.40;;;;;;;;;;5015469;28;20500;-39
2023/09/21 06:44:05;;;;;;;6.72;3.30;;;;;;;;;;5017454;28;20041;-39
2023/09/21 06:46:30;;;;;;;13.53;3.60;;;;;;;;;;5021148;28;20032;-39
2023/09/21 06:48:56;;;;;;;6.60;3.22;;;;;;;;;;5018018;28;20330;-39
2023/09/21 06:51:21;;;;;;;8.77;3.50;;;;;;;;;;5014820;28;20030;-39
2023/09/21 06:53:48;;;;;;;4.70;2.73;;;;;;;;;;5018713;28;20289;-39
2023/09/21 06:56:14;;;;;;;14.43;3.65;;;;;;;;;;5026793;28;20091;-39
2023/09/21 06:58:39;;;;;;;9.07;4.03;;;;;;;;;;5015498;28;20472;-39
2023/09/21 07:01:04;;;;;;;3.70;2.00;;;;;;;;;;5018549;28;20053;-39
2023/09/21 07:03:30;;;;;;;5.57;3.30;;;;;;;;;;5023414;28;20268;-39
2023/09/21 07:05:55;;;;;;;11.33;3.00;;;;;;;;;;5017029;28;20022;-39
2023/09/21 07:08:21;;;;;;;11.00;5.47;;;;;;;;;;5021243;28;20280;-39
2023/09/21 07:10:48;;;;;;;12.30;5.55;;;;;;;;;;5019895;28;20029;-39
2023/09/21 07:13:14;;;;;;;7.18;4.00;;;;;;;;;;5021464;28;20036;-39
2023/09/21 07:15:39;;;;;;;7.85;3.60;;;;;;;;;;5021055;28;20029;-39
2023/09/21 07:18:05;;;;;;;7.80;3.17;;;;;;;;;;5023646;28;20057;-39
2023/09/21 07:20:31;;;;;;;3.25;1.92;;;;;;;;;;5022472;28;20026;-39
2023/09/21 07:22:56;;;;;;;8.13;3.60;;;;;;;;;;5020129;28;20030;-39
2023/09/21 07:25:24;;;;;;;7.83;3.90;;;;;;;;;;5022715;28;20033;-39
2023/09/21 07:27:51;;;;;;;6.60;3.58;;;;;;;;;;5022721;28;20272;-39
2023/09/21 07:30:17;;;;;;;7.57;2.88;;;;;;;;;;5022149;28;20055;-39
2023/09/21 07:32:42;;;;;;;9.23;2.70;;;;;;;;;;5027119;28;20025;-38
2023/09/21 07:35:07;;;;;;;6.37;3.00;;;;;;;;;;5024365;28;20030;-38
2023/09/21 07:37:33;;;;;;;7.55;3.40;;;;;;;;;;5024401;28;20280;-38
2023/09/21 07:40:03;;;;;;;7.05;3.15;;;;;;;;;;5026917;28;20129;-38
2023/09/21 07:42:28;;;;;;;10.05;3.65;;;;;;;;;;5026010;28;20026;-38
2023/09/21 07:44:53;;;;;;;4.90;3.00;;;;;;;;;;5027209;28;20029;-38
2023/09/21 07:47:19;;;;;;;6.97;3.08;;;;;;;;;;5025939;28;20707;-38
2023/09/21 07:49:44;;;;;;;5.78;2.92;;;;;;;;;;5023248;28;20031;-38
2023/09/21 07:52:10;;;;;;;9.45;3.67;;;;;;;;;;5025179;28;20025;-38
2023/09/21 07:54:35;;;;;;;4.23;2.53;;;;;;;;;;5024307;28;20030;-38
2023/09/21 07:57:02;;;;;;;5.20;2.85;;;;;;;;;;5022613;28;20030;-38
2023/09/21 07:59:27;;;;;;;5.32;2.55;;;;;;;;;;5026932;28;20013;-38
2023/09/21 08:01:53;;;;;;;5.17;2.23;;;;;;;;;;5021915;28;20163;-38
2023/09/21 08:04:20;;;;;;;15.15;4.28;;;;;;;;;;5026286;28;20037;-38
2023/09/21 08:06:45;;;;;;;4.72;2.80;;;;;;;;;;5021135;28;20036;-38
2023/09/21 08:09:11;;;;;;;11.10;2.77;;;;;;;;;;5020086;28;20025;-38
2023/09/21 08:11:37;;;;;;;5.63;2.95;;;;;;;;;;5024999;28;20580;-38
2023/09/21 08:14:03;;;;;;;7.18;3.28;;;;;;;;;;5022185;28;20037;-38
2023/09/21 08:16:29;;;;;;;5.75;2.92;;;;;;;;;;5024064;28;20034;-38
2023/09/21 08:18:54;;;;;;;4.45;2.10;;;;;;;;;;5023722;28;20042;-38
2023/09/21 08:21:19;;;;;;;7.53;3.27;;;;;;;;;;5024056;28;20445;-38
2023/09/21 08:23:46;;;;;;;7.77;3.07;;;;;;;;;;5017247;28;20068;-38
2023/09/21 08:26:13;;;;;;;8.30;3.75;;;;;;;;;;5021219;28;20037;-38
2023/09/21 08:28:39;;;;;;;6.97;2.42;;;;;;;;;;5020561;28;20029;-38
2023/09/21 08:31:04;;;;;;;13.87;4.03;;;;;;;;;;5024655;28;20140;-38
2023/09/21 08:33:29;;;;;;;10.43;2.90;;;;;;;;;;5025386;28;20359;-38
2023/09/21 08:35:55;;;;;;;7.10;3.45;;;;;;;;;;5026595;28;20281;-38
2023/09/21 08:38:20;;;;;;;6.47;2.90;;;;;;;;;;5019848;28;20052;-38
2023/09/21 08:40:47;;;;;;;8.30;2.80;;;;;;;;;;5022733;28;20058;-38
2023/09/21 08:43:26;;;;;;;19.60;8.55;;;;;;;;;;5025907;28;20359;-38
2023/09/21 08:45:51;;;;;;;4.90;2.92;;;;;;;;;;5025018;28;20029;-38
2023/09/21 08:48:20;;;;;;;6.68;2.72;;;;;;;;;;5020936;28;20129;-38
2023/09/21 08:50:48;;;;;;;6.13;2.90;;;;;;;;;;5019947;28;20026;-38
2023/09/21 08:53:17;;;;;;;5.85;2.38;;;;;;;;;;5021962;28;20029;-38
2023/09/21 08:55:43;;;;;;;5.10;2.20;;;;;;;;;;5023204;28;20026;-38
2023/09/21 08:58:10;;;;;;;4.30;2.35;;;;;;;;;;5024130;28;20025;-38
2023/09/21 09:00:36;;;;;;;6.15;2.80;;;;;;;;;;5020939;28;20037;-38
2023/09/21 09:03:02;;;;;;;7.65;2.35;;;;;;;;;;5025172;28;20056;-38
2023/09/21 09:05:27;;;;;;;3.78;2.17;;;;;;;;;;5024264;28;20045;-38
2023/09/21 09:07:52;;;;;;;4.93;2.22;;;;;;;;;;5020273;28;20048;-38
2023/09/21 09:10:18;;;;;;;6.73;2.07;;;;;;;;;;5022190;28;20073;-38
2023/09/21 09:12:43;;;;;;;4.30;2.33;;;;;;;;;;5021438;28;20377;-38
2023/09/21 09:15:09;;;;;;;5.43;2.38;;;;;;;;;;5027273;28;20113;-38
2023/09/21 09:17:35;;;;;;;4.93;2.13;;;;;;;;;;5020544;28;20507;-39
2023/09/21 09:20:05;;;;;;;3.97;2.28;;;;;;;;;;5022974;28;20022;-39
2023/09/21 09:22:31;;;;;;;7.57;2.63;;;;;;;;;;5024931;28;20100;-39
2023/09/21 09:25:01;;;;;;;6.65;2.53;;;;;;;;;;5022298;28;20026;-39
2023/09/21 09:27:26;;;;;;;5.20;2.40;;;;;;;;;;5021489;28;20028;-39
2023/09/21 09:29:52;;;;;;;4.57;2.30;;;;;;;;;;5023423;28;20025;-39
2023/09/21 09:32:18;;;;;;;5.25;2.15;;;;;;;;;;5023397;28;20086;-39
2023/09/21 09:34:44;;;;;;;5.43;2.00;;;;;;;;;;5017686;28;20049;-39
2023/09/21 09:37:15;;;;;;;6.90;2.42;;;;;;;;;;5019134;28;20068;-39
2023/09/21 09:39:41;;;;;;;13.23;2.45;;;;;;;;;;5023918;28;20163;-39
2023/09/21 09:42:06;;;;;;;6.35;3.00;;;;;;;;;;5022214;28;20124;-39
2023/09/21 09:44:33;;;;;;;6.30;2.50;;;;;;;;;;5022095;28;20435;-38
2023/09/21 09:47:00;;;;;;;8.90;2.67;;;;;;;;;;5019272;28;20482;-39
2023/09/21 09:49:28;;;;;;;9.18;2.40;;;;;;;;;;5022943;28;20377;-38
2023/09/21 09:51:55;;;;;;;5.30;2.20;;;;;;;;;;5021737;28;20033;-38
2023/09/21 09:54:21;;;;;;;6.88;2.78;;;;;;;;;;5020012;28;20052;-39
2023/09/21 09:56:48;;;;;;;4.85;2.50;;;;;;;;;;5018742;28;20064;-39
2023/09/21 09:59:15;;;;;;;3.55;1.90;;;;;;;;;;5023350;28;20013;-39
2023/09/21 10:01:44;;;;;;;6.50;2.10;;;;;;;;;;5021905;28;20033;-39
2023/09/21 10:04:09;;;;;;;5.45;2.05;;;;;;;;;;5024427;28;20095;-39
2023/09/21 10:06:36;;;;;;;4.18;2.05;;;;;;;;;;5019246;28;20033;-39
2023/09/21 10:09:02;;;;;;;7.53;2.97;;;;;;;;;;5020145;28;20420;-39
2023/09/21 10:11:28;;;;;;;9.45;3.50;;;;;;;;;;5025789;28;20029;-39
2023/09/21 10:13:55;;;;;;;10.15;4.88;;;;;;;;;;5023496;28;20095;-39
2023/09/21 10:16:23;;;;;;;9.05;2.53;;;;;;;;;;5022806;28;20395;-39
2023/09/21 10:18:53;;;;;;;4.63;2.45;;;;;;;;;;5020416;28;20561;-39
2023/09/21 10:21:31;;;;;;;3.90;2.08;;;;;;;;;;5021507;28;20029;-39
2023/09/21 10:24:04;;;;;;;7.35;1.77;;;;;;;;;;5020551;28;20168;-39
2023/09/21 10:26:33;;;;;;;5.65;1.90;;;;;;;;;;5025391;28;20096;-39
2023/09/21 10:29:03;;;;;;;4.72;2.20;;;;;;;;;;5023546;28;20488;-39
2023/09/21 10:31:30;;;;;;;4.65;1.92;;;;;;;;;;5025695;28;20033;-39
2023/09/21 10:33:58;;;;;;;3.55;1.75;;;;;;;;;;5020053;28;20017;-39
2023/09/21 10:36:26;;;;;;;3.55;1.60;;;;;;;;;;5027776;28;20529;-39
2023/09/21 10:39:24;;;;;;;10.10;2.90;;;;;;;;;;5022181;28;20119;-39
2023/09/21 10:41:52;;;;;;;6.60;2.40;;;;;;;;;;5023231;28;20034;-39
2023/09/21 10:44:36;;;;;;;5.38;1.85;;;;;;;;;;5022718;28;20061;-39
2023/09/21 10:47:01;;;;;;;5.43;1.80;;;;;;;;;;5021873;28;20025;-39
2023/09/21 10:49:33;;;;;;;6.13;1.93;;;;;;;;;;5025900;28;20026;-39
2023/09/21 10:51:59;;;;;;;4.32;1.83;;;;;;;;;;5024666;28;20029;-39
2023/09/21 10:54:25;;;;;;;6.57;1.77;;;;;;;;;;5017375;28;20025;-39
2023/09/21 10:56:50;;;;;;;5.32;1.95;;;;;;;;;;5024621;28;20026;-39
2023/09/21 10:59:16;;;;;;;4.75;1.63;;;;;;;;;;5019743;28;20082;-39
2023/09/21 11:01:42;;;;;;;3.25;1.80;;;;;;;;;;5023727;28;20025;-39
2023/09/21 11:04:07;;;;;;;5.75;1.90;;;;;;;;;;5021795;28;20032;-39
2023/09/21 11:06:32;;;;;;;4.00;2.00;;;;;;;;;;5023044;28;20027;-39
2023/09/21 11:08:59;;;;;;;6.50;1.90;;;;;;;;;;5021361;28;20026;-39
2023/09/21 11:11:25;;;;;;;5.57;3.15;;;;;;;;;;5021926;28;20260;-39
2023/09/21 11:13:51;;;;;;;3.85;1.65;;;;;;;;;;5023192;28;20014;-39
2023/09/21 11:16:16;;;;;;;3.85;1.90;;;;;;;;;;5019295;28;20033;-39
2023/09/21 11:18:42;;;;;;;7.55;1.98;;;;;;;;;;5022270;28;20104;-39
2023/09/21 11:21:08;;;;;;;4.72;1.33;;;;;;;;;;5026182;28;20136;-39
2023/09/21 11:23:34;;;;;;;4.13;1.55;;;;;;;;;;5025119;28;20053;-39
2023/09/21 11:26:00;;;;;;;7.15;2.67;;;;;;;;;;5023053;28;20084;-39
2023/09/21 11:28:26;;;;;;;8.30;5.07;;;;;;;;;;5025913;28;20645;-39
2023/09/21 11:30:51;;;;;;;6.78;3.40;;;;;;;;;;5020412;28;20036;-38
2023/09/21 11:33:20;;;;;;;4.90;2.00;;;;;;;;;;5024171;28;20030;-39
2023/09/21 11:35:45;;;;;;;4.07;2.00;;;;;;;;;;5016151;28;20030;-39
2023/09/21 11:38:12;;;;;;;3.20;1.73;;;;;;;;;;5021498;28;20462;-39
2023/09/21 11:40:37;;;;;;;7.75;1.85;;;;;;;;;;5025195;28;20022;-39
2023/09/21 11:43:02;;;;;;;4.73;2.90;;;;;;;;;;5022798;28;20369;-39
2023/09/21 11:45:28;;;;;;;4.32;1.90;;;;;;;;;;5023246;28;20307;-39
2023/09/21 11:47:57;;;;;;;6.63;1.80;;;;;;;;;;5022945;28;20100;-39
2023/09/21 11:50:26;;;;;;;4.22;1.73;;;;;;;;;;5019968;28;20076;-39
2023/09/21 11:52:54;;;;;;;2.80;1.50;;;;;;;;;;5020307;28;20026;-39
2023/09/21 11:55:29;;;;;;;7.40;2.17;;;;;;;;;;5024272;28;20025;-39
2023/09/21 11:58:08;;;;;;;5.10;1.83;;;;;;;;;;5020596;28;20053;-39
2023/09/21 12:00:45;;;;;;;4.43;1.60;;;;;;;;;;5025261;28;20021;-39
2023/09/21 12:03:16;;;;;;;5.75;1.55;;;;;;;;;;5025970;28;20357;-39
2023/09/21 12:05:42;;;;;;;4.57;1.27;;;;;;;;;;5021428;28;20026;-39
2023/09/21 12:08:10;;;;;;;4.38;1.77;;;;;;;;;;5020033;28;20037;-39
2023/09/21 12:10:35;;;;;;;4.10;1.63;;;;;;;;;;5021903;28;20037;-39
2023/09/21 12:13:03;;;;;;;4.22;2.05;;;;;;;;;;5025148;28;20055;-39
2023/09/21 12:15:28;;;;;;;2.95;1.45;;;;;;;;;;5024468;28;20038;-39
2023/09/21 12:17:53;;;;;;;3.67;1.67;;;;;;;;;;5027815;28;20024;-39
2023/09/21 12:20:20;;;;;;;4.20;1.93;;;;;;;;;;5024460;28;20272;-39
2023/09/21 12:22:45;;;;;;;5.20;1.75;;;;;;;;;;5025999;28;20022;-39
2023/09/21 12:25:11;;;;;;;3.77;2.13;;;;;;;;;;5021401;28;20068;-39
2023/09/21 12:27:38;;;;;;;5.53;2.35;;;;;;;;;;5028647;28;20292;-39
2023/09/21 12:30:05;;;;;;;6.63;2.08;;;;;;;;;;5026887;28;20033;-39
2023/09/21 12:32:31;;;;;;;3.00;1.58;;;;;;;;;;5024270;28;20026;-39
2023/09/21 12:34:57;;;;;;;4.35;2.15;;;;;;;;;;5025054;28;20017;-39
2023/09/21 12:37:22;;;;;;;8.80;3.67;;;;;;;;;;5023811;28;20487;-39
2023/09/21 12:39:47;;;;;;;9.87;4.40;;;;;;;;;;5022886;28;20503;-39
2023/09/21 12:42:14;;;;;;;4.37;2.30;;;;;;;;;;5021477;28;20284;-39
2023/09/21 12:44:40;;;;;;;3.10;1.35;;;;;;;;;;5022010;28;20034;-39
2023/09/21 12:47:08;;;;;;;4.25;1.85;;;;;;;;;;5025541;28;20439;-39
2023/09/21 12:49:33;;;;;;;3.83;2.00;;;;;;;;;;5026995;28;20033;-40
2023/09/21 12:51:58;;;;;;;7.72;2.30;;;;;;;;;;5028532;28;20052;-40
2023/09/21 12:54:24;;;;;;;7.23;2.03;;;;;;;;;;5029000;28;20030;-39
2023/09/21 12:56:50;;;;;;;3.87;1.60;;;;;;;;;;5022338;28;20018;-39
2023/09/21 12:59:15;;;;;;;6.10;1.35;;;;;;;;;;5024519;28;20283;-39
2023/09/21 13:01:40;;;;;;;8.02;1.35;;;;;;;;;;5022519;28;20056;-39
2023/09/21 13:04:05;;;;;;;6.83;1.70;;;;;;;;;;5019244;28;20476;-40
2023/09/21 13:06:31;;;;;;;0.00;0.00;;;;;;;;;;5025585;28;20030;-39
2023/09/21 13:08:56;;;;;;;0.00;0.00;;;;;;;;;;5026003;28;20351;-39
2023/09/21 13:11:21;;;;;;;3.80;0.73;;;;;;;;;;5022506;28;20725;-39
2023/09/21 13:13:47;;;;;;;3.67;1.70;;;;;;;;;;5030542;28;20311;-39
2023/09/21 13:16:12;;;;;;;4.03;2.10;;;;;;;;;;5020307;28;20299;-40
2023/09/21 13:18:40;;;;;;;4.13;1.75;;;;;;;;;;5021759;28;20045;-39
2023/09/21 13:21:06;;;;;;;4.55;1.98;;;;;;;;;;5026080;28;20104;-40
2023/09/21 13:23:32;;;;;;;4.43;1.80;;;;;;;;;;5027106;28;20080;-40
2023/09/21 13:25:57;;;;;;;3.53;1.08;;;;;;;;;;5023645;28;20033;-40
2023/09/21 13:28:23;;;;;;;4.00;1.60;;;;;;;;;;5021408;28;20087;-40
2023/09/21 13:30:48;;;;;;;2.72;1.48;;;;;;;;;;5025914;28;20481;-40
2023/09/21 13:33:14;;;;;;;4.63;1.83;;;;;;;;;;5021537;28;20425;-40
2023/09/21 13:35:40;;;;;;;5.40;1.85;;;;;;;;;;5022938;28;20017;-40
2023/09/21 13:38:06;;;;;;;6.53;2.28;;;;;;;;;;5023541;28;20016;-40
2023/09/21 13:40:31;;;;;;;5.13;1.77;;;;;;;;;;5027703;28;20025;-40
2023/09/21 13:42:58;;;;;;;4.20;1.40;;;;;;;;;;5023259;28;20510;-40
2023/09/21 13:45:24;;;;;;;9.27;3.65;;;;;;;;;;5024845;28;20025;-40
2023/09/21 13:47:50;;;;;;;5.90;2.47;;;;;;;;;;5019720;28;20076;-40
2023/09/21 13:50:15;;;;;;;6.97;3.63;;;;;;;;;;5023018;28;20041;-40
2023/09/21 13:52:40;;;;;;;5.47;2.78;;;;;;;;;;5027625;28;20129;-40
2023/09/21 13:55:06;;;;;;;6.05;1.77;;;;;;;;;;5020630;28;20021;-40
2023/09/21 13:57:31;;;;;;;5.40;1.73;;;;;;;;;;5020423;28;20128;-40
2023/09/21 13:59:57;;;;;;;3.87;1.80;;;;;;;;;;5021635;28;20041;-40
2023/09/21 14:02:22;;;;;;;4.60;2.05;;;;;;;;;;5023616;28;20113;-39
2023/09/21 14:04:48;;;;;;;8.52;2.20;;;;;;;;;;5017475;28;20033;-39
2023/09/21 14:07:14;;;;;;;11.90;3.95;;;;;;;;;;5022774;28;20040;-40
2023/09/21 14:09:41;;;;;;;6.13;1.95;;;;;;;;;;5025999;28;20079;-39
2023/09/21 14:12:07;;;;;;;3.25;1.25;;;;;;;;;;5025721;28;20025;-39
2023/09/21 14:14:34;;;;;;;4.07;2.00;;;;;;;;;;5022898;28;20025;-39
2023/09/21 14:17:00;;;;;;;11.63;5.30;;;;;;;;;;5025341;28;20040;-39
2023/09/21 14:19:25;;;;;;;7.43;3.28;;;;;;;;;;5021227;28;20022;-39
2023/09/21 14:21:52;;;;;;;1.33;0.90;;;;;;;;;;5015556;28;20044;-39
2023/09/21 14:24:17;;;;;;;2.75;1.23;;;;;;;;;;5020694;28;20108;-39
2023/09/21 14:26:42;;;;;;;6.05;1.80;;;;;;;;;;5017859;28;20132;-41
2023/09/21 14:29:07;;;;;;;3.23;1.73;;;;;;;;;;5021639;28;20654;-39
2023/09/21 14:31:33;;;;;;;4.63;1.97;;;;;;;;;;5015097;28;20083;-39
2023/09/21 14:33:58;;;;;;;4.90;1.23;;;;;;;;;;5019099;28;20307;-38
2023/09/21 14:36:24;;;;;;;5.73;1.63;;;;;;;;;;5015564;28;20057;-39
2023/09/21 14:38:49;;;;;;;5.10;2.13;;;;;;;;;;5020299;28;20407;-39
2023/09/21 14:41:14;;;;;;;4.10;1.80;;;;;;;;;;5021493;28;20060;-39